createdAt,value
2022-11-22T00:01:26.693Z,98378.88
2022-11-22T00:03:54.893Z,98382.09
2022-11-22T00:06:23.290Z,98389.34
2022-11-22T00:08:51.500Z,98387.97
2022-11-22T00:11:21.308Z,98383.91
2022-11-22T00:13:49.605Z,98384.13
2022-11-22T00:16:17.824Z,98384.94
2022-11-22T00:18:46.035Z,98381.72
2022-11-22T00:21:14.220Z,98382.72
2022-11-22T00:23:42.481Z,98374.06
2022-11-22T00:26:12.353Z,98379.72
2022-11-22T00:28:42.258Z,98380.72
2022-11-22T00:31:10.559Z,98375.66
2022-11-22T00:33:38.747Z,98372.03
2022-11-22T00:36:06.943Z,98373.84
2022-11-22T00:38:35.032Z,98373.47
2022-11-22T00:41:03.120Z,98368.44
2022-11-22T00:43:31.637Z,98368.84
2022-11-22T00:46:02.765Z,98366.59
2022-11-22T00:48:30.906Z,98359.19
2022-11-22T00:50:59.023Z,98362.19
2022-11-22T00:53:27.379Z,98361.59
2022-11-22T00:55:55.520Z,98358.34
2022-11-22T00:58:23.807Z,98360.38
2022-11-22T01:00:56.585Z,98357.16
2022-11-22T01:03:26.777Z,98355.13
2022-11-22T01:05:54.987Z,98358.16
2022-11-22T01:08:23.216Z,98354.13
2022-11-22T01:10:57.138Z,98351.94
2022-11-22T01:13:25.392Z,98348.91
2022-11-22T01:15:53.612Z,98353.50
2022-11-22T01:18:21.847Z,98354.31
2022-11-22T01:20:51.538Z,98347.06
2022-11-22T01:23:19.774Z,98350.69
2022-11-22T01:25:48.064Z,98348.28
2022-11-22T01:28:16.235Z,98351.50
2022-11-22T01:30:44.770Z,98349.06
2022-11-22T01:33:13.137Z,98349.88
2022-11-22T01:35:41.352Z,98348.88
2022-11-22T01:38:10.831Z,98351.09
2022-11-22T01:40:39.565Z,98349.06
2022-11-22T01:43:17.547Z,98346.28
2022-11-22T01:45:49.060Z,98350.28
2022-11-22T01:48:36.813Z,98336.00
2022-11-22T01:51:10.953Z,98338.44
2022-11-22T01:53:42.035Z,98346.91
2022-11-22T01:56:16.392Z,98341.03
2022-11-22T01:58:48.677Z,98355.13
2022-11-22T02:01:16.912Z,98347.88
2022-11-22T02:03:49.825Z,98342.47
2022-11-22T02:06:19.981Z,98346.91
2022-11-22T02:08:56.292Z,98342.66
2022-11-22T02:11:31.005Z,98339.44
2022-11-22T02:14:02.108Z,98349.31
2022-11-22T02:16:30.752Z,98347.69
2022-11-22T02:18:58.954Z,98347.09
2022-11-22T02:21:27.238Z,98350.28
2022-11-22T02:24:06.009Z,98350.69
2022-11-22T02:26:35.670Z,98356.94
2022-11-22T02:29:07.857Z,98361.59
2022-11-22T02:31:42.504Z,98364.41
2022-11-22T02:34:11.079Z,98368.63
2022-11-22T02:36:43.981Z,98371.63
2022-11-22T02:39:15.610Z,98368.44
2022-11-22T02:41:45.790Z,98376.28
2022-11-22T02:44:14.997Z,98372.03
2022-11-22T02:46:50.744Z,98369.63
2022-11-22T02:49:20.516Z,98374.84
2022-11-22T02:51:49.082Z,98377.06
2022-11-22T02:54:17.272Z,98384.72
2022-11-22T02:56:46.860Z,98382.72
2022-11-22T02:59:15.063Z,98380.69
2022-11-22T03:01:45.682Z,98380.09
2022-11-22T03:04:24.786Z,98382.72
2022-11-22T03:06:55.265Z,98377.50
2022-11-22T03:09:24.113Z,98375.69
2022-11-22T03:11:54.481Z,98368.00
2022-11-22T03:14:22.964Z,98372.66
2022-11-22T03:16:51.347Z,98370.03
2022-11-22T03:19:19.740Z,98370.03
2022-11-22T03:21:47.952Z,98372.44
2022-11-22T03:24:16.295Z,98369.66
2022-11-22T03:26:48.449Z,98364.41
2022-11-22T03:29:18.579Z,98367.03
2022-11-22T03:31:46.844Z,98377.66
2022-11-22T03:34:15.345Z,98371.84
2022-11-22T03:36:43.752Z,98368.81
2022-11-22T03:39:11.872Z,98372.44
2022-11-22T03:41:40.000Z,98374.66
2022-11-22T03:44:08.443Z,98378.06
2022-11-22T03:46:37.887Z,98378.06
2022-11-22T03:49:06.010Z,98390.53
2022-11-22T03:51:34.247Z,98385.09
2022-11-22T03:54:02.403Z,98380.69
2022-11-22T03:56:30.607Z,98384.09
2022-11-22T03:58:58.697Z,98385.28
2022-11-22T04:01:26.871Z,98392.16
2022-11-22T04:03:56.551Z,98394.16
2022-11-22T04:06:24.726Z,98395.16
2022-11-22T04:08:52.933Z,98395.16
2022-11-22T04:11:21.084Z,98389.31
2022-11-22T04:14:06.659Z,98387.69
2022-11-22T04:16:34.977Z,98383.69
2022-11-22T04:19:04.445Z,98399.75
2022-11-22T04:21:34.160Z,98400.94
2022-11-22T04:24:31.922Z,98412.63
2022-11-22T04:27:00.398Z,98413.22
2022-11-22T04:29:28.855Z,98413.41
2022-11-22T04:32:14.800Z,98423.44
2022-11-22T04:34:44.327Z,98423.44
2022-11-22T04:37:12.733Z,98426.06
2022-11-22T04:39:40.961Z,98425.06
2022-11-22T04:42:27.941Z,98428.31
2022-11-22T04:44:56.676Z,98435.31
2022-11-22T04:47:45.018Z,98441.16
2022-11-22T04:50:36.119Z,98444.22
2022-11-22T04:53:04.274Z,98454.88
2022-11-22T04:55:32.561Z,98451.47
2022-11-22T04:58:00.857Z,98455.13
2022-11-22T05:00:29.367Z,98453.31
2022-11-22T05:02:57.853Z,98449.28
2022-11-22T05:05:27.716Z,98457.34
2022-11-22T05:07:56.337Z,98470.63
2022-11-22T05:10:26.790Z,98480.09
2022-11-22T05:12:56.535Z,98472.63
2022-11-22T05:15:24.719Z,98472.19
2022-11-22T05:17:52.833Z,98481.06
2022-11-22T05:20:21.069Z,98487.31
2022-11-22T05:23:08.106Z,98489.28
2022-11-22T05:25:36.234Z,98509.41
2022-11-22T05:28:04.735Z,98513.22
2022-11-22T05:30:32.803Z,98523.28
2022-11-22T05:33:00.986Z,98518.25
2022-11-22T05:35:29.109Z,98518.41
2022-11-22T05:37:59.481Z,98512.59
2022-11-22T05:40:28.229Z,98521.66
2022-11-22T05:42:56.392Z,98520.00
2022-11-22T05:45:24.526Z,98526.44
2022-11-22T05:47:52.650Z,98527.81
2022-11-22T05:50:20.736Z,98535.25
2022-11-22T05:52:48.871Z,98539.88
2022-11-22T05:55:18.652Z,98540.84
2022-11-22T05:57:46.872Z,98538.81
2022-11-22T06:00:15.768Z,98543.22
2022-11-22T06:02:43.927Z,98556.50
2022-11-22T06:05:12.375Z,98560.28
2022-11-22T06:07:40.516Z,98563.09
2022-11-22T06:10:09.699Z,98568.69
2022-11-22T06:12:39.261Z,98561.69
2022-11-22T06:15:08.269Z,98566.09
2022-11-22T06:17:36.460Z,98555.00
2022-11-22T06:20:08.876Z,98552.59
2022-11-22T06:22:37.020Z,98554.19
2022-11-22T06:25:05.944Z,98555.19
2022-11-22T06:27:34.085Z,98554.41
2022-11-22T06:30:03.710Z,98554.41
2022-11-22T06:32:34.025Z,98556.38
2022-11-22T06:35:02.765Z,98563.59
2022-11-22T06:37:31.135Z,98560.34
2022-11-22T06:39:59.495Z,98562.38
2022-11-22T06:42:27.630Z,98572.44
2022-11-22T06:44:55.768Z,98582.47
2022-11-22T06:47:25.285Z,98583.28
2022-11-22T06:49:53.591Z,98582.03
2022-11-22T06:52:21.730Z,98596.91
2022-11-22T06:54:49.979Z,98604.13
2022-11-22T06:57:18.176Z,98608.53
2022-11-22T06:59:49.336Z,98628.63
2022-11-22T07:02:17.502Z,98618.38
2022-11-22T07:05:09.782Z,98620.78
2022-11-22T07:07:35.274Z,98613.16
2022-11-22T07:10:03.474Z,98620.00
2022-11-22T07:12:31.716Z,98624.22
2022-11-22T07:14:59.924Z,98628.28
2022-11-22T07:17:28.037Z,98631.50
2022-11-22T07:19:57.581Z,98642.44
2022-11-22T07:22:25.711Z,98648.94
2022-11-22T07:24:53.860Z,98659.25
2022-11-22T07:27:22.090Z,98661.69
2022-11-22T07:29:50.179Z,98663.72
2022-11-22T07:32:18.355Z,98659.94
2022-11-22T07:34:46.422Z,98663.16
2022-11-22T07:37:15.852Z,98661.19
2022-11-22T07:39:44.033Z,98662.19
2022-11-22T07:42:13.172Z,98661.19
2022-11-22T07:44:41.321Z,98669.63
2022-11-22T07:47:09.524Z,98672.88
2022-11-22T07:49:38.140Z,98668.88
2022-11-22T07:52:06.940Z,98668.88
2022-11-22T07:54:36.408Z,98674.16
2022-11-22T07:57:04.766Z,98682.81
2022-11-22T07:59:32.913Z,98686.03
2022-11-22T08:02:01.179Z,98684.06
2022-11-22T08:04:29.396Z,98694.13
2022-11-22T08:06:57.570Z,98703.59
2022-11-22T08:09:25.682Z,98702.56
2022-11-22T08:11:55.188Z,98699.75
2022-11-22T08:14:23.452Z,98696.50
2022-11-22T08:16:51.551Z,98702.72
2022-11-22T08:19:20.800Z,98708.75
2022-11-22T08:21:52.721Z,98705.53
2022-11-22T08:24:25.572Z,98707.16
2022-11-22T08:26:55.053Z,98722.25
2022-11-22T08:29:23.231Z,98719.63
2022-11-22T08:31:51.379Z,98726.91
2022-11-22T08:34:19.489Z,98730.50
2022-11-22T08:36:47.634Z,98733.09
2022-11-22T08:39:15.964Z,98740.38
2022-11-22T08:41:44.253Z,98754.31
2022-11-22T08:44:13.722Z,98755.28
2022-11-22T08:46:41.932Z,98751.25
2022-11-22T08:49:12.208Z,98751.06
2022-11-22T08:51:44.952Z,98744.22
2022-11-22T08:54:15.409Z,98746.19
2022-11-22T08:56:43.579Z,98750.59
2022-11-22T08:59:13.153Z,98749.63
2022-11-22T09:01:41.570Z,98748.63
2022-11-22T09:04:09.739Z,98755.03
2022-11-22T09:09:37.313Z,98757.88
2022-11-22T09:12:06.680Z,98752.50
2022-11-22T09:14:36.345Z,98757.53
2022-11-22T09:17:05.891Z,98755.91
2022-11-22T09:19:34.248Z,98754.09
2022-11-22T09:22:02.403Z,98750.72
2022-11-22T09:24:30.626Z,98743.88
2022-11-22T09:26:58.850Z,98755.97
2022-11-22T09:29:26.998Z,98749.16
2022-11-22T09:31:57.364Z,98758.81
2022-11-22T09:34:25.481Z,98751.59
2022-11-22T10:19:07.355Z,98790.78
2022-11-22T10:21:35.625Z,98798.28
2022-11-22T10:24:04.158Z,98791.41
2022-11-22T10:26:34.535Z,98792.81
2022-11-22T10:29:14.330Z,98793.84
2022-11-22T10:31:49.843Z,98789.84
2022-11-22T10:34:29.390Z,98797.13
2022-11-22T10:37:06.158Z,98783.81
2022-11-22T10:39:52.590Z,98797.34
2022-11-22T10:42:32.212Z,98814.06
2022-11-22T10:45:06.380Z,98810.25
2022-11-22T10:47:55.167Z,98808.84
2022-11-22T10:50:30.744Z,98803.03
2022-11-22T10:53:06.895Z,98793.56
2022-11-22T10:55:46.047Z,98802.47
2022-11-22T10:58:22.849Z,98797.00
2022-11-22T11:00:58.102Z,98800.84
2022-11-22T11:03:31.481Z,98800.66
2022-11-22T11:06:33.555Z,98802.25
2022-11-22T11:09:54.994Z,98803.91
2022-11-22T11:11:50.777Z,98798.25
2022-11-22T11:14:28.202Z,98810.16
2022-11-22T11:16:56.645Z,98810.34
2022-11-22T11:19:26.311Z,98809.34
2022-11-22T11:22:01.893Z,98807.75
2022-11-22T11:24:32.087Z,98806.38
2022-11-22T11:27:01.911Z,98807.19
2022-11-22T11:29:42.360Z,98817.81
2022-11-22T11:32:13.194Z,98818.03
2022-11-22T11:34:44.425Z,98823.28
2022-11-22T11:37:33.224Z,98828.69
2022-11-22T11:40:01.395Z,98820.66
2022-11-22T11:42:31.160Z,98826.31
2022-11-22T11:45:28.049Z,98837.78
2022-11-22T11:47:56.155Z,98836.59
2022-11-22T11:50:27.249Z,98833.78
2022-11-22T11:53:04.171Z,98833.59
2022-11-22T11:55:33.322Z,98835.44
2022-11-22T11:58:05.079Z,98833.19
2022-11-22T12:00:39.662Z,98841.69
2022-11-22T12:03:10.431Z,98840.03
2022-11-22T12:05:38.582Z,98840.44
2022-11-22T12:08:29.617Z,98843.66
2022-11-22T12:11:02.274Z,98841.84
2022-11-22T12:13:51.541Z,98843.88
2022-11-22T12:16:25.499Z,98845.25
2022-11-22T12:18:59.127Z,98851.69
2022-11-22T12:21:34.676Z,98848.09
2022-11-22T12:24:42.729Z,98841.78
2022-11-22T12:27:01.312Z,98838.75
2022-11-22T12:29:29.751Z,98846.63
2022-11-22T12:32:04.225Z,98845.63
2022-11-22T12:34:36.757Z,98848.66
2022-11-22T12:37:11.227Z,98845.03
2022-11-22T12:39:47.349Z,98831.13
2022-11-22T12:42:22.848Z,98825.09
2022-11-22T12:44:55.370Z,98826.53
2022-11-22T12:47:27.347Z,98821.91
2022-11-22T12:50:01.070Z,98825.13
2022-11-22T12:52:34.402Z,98817.31
2022-11-22T12:55:06.084Z,98825.78
2022-11-22T12:57:40.538Z,98817.09
2022-11-22T13:00:17.348Z,98821.97
2022-11-22T13:02:58.751Z,98812.06
2022-11-22T13:05:32.213Z,98817.72
2022-11-22T13:08:09.135Z,98820.94
2022-11-22T13:10:43.493Z,98819.94
2022-11-22T13:13:21.856Z,98819.56
2022-11-22T13:15:53.509Z,98818.56
2022-11-22T13:18:26.395Z,98819.19
2022-11-22T13:21:04.172Z,98818.56
2022-11-22T13:23:50.194Z,98816.94
2022-11-22T13:26:25.512Z,98807.25
2022-11-22T13:28:53.871Z,98816.56
2022-11-22T13:31:22.240Z,98815.53
2022-11-22T13:33:56.685Z,98817.53
2022-11-22T13:36:46.458Z,98819.78
2022-11-22T13:39:20.127Z,98821.16
2022-11-22T13:41:55.771Z,98826.63
2022-11-22T13:44:35.494Z,98840.91
2022-11-22T13:47:04.961Z,98834.06
2022-11-22T13:49:48.324Z,98843.94
2022-11-22T13:52:48.724Z,98843.28
2022-11-22T13:55:28.580Z,98844.53
2022-11-22T13:58:18.236Z,98852.19
2022-11-22T14:00:46.560Z,98846.75
2022-11-22T14:03:33.948Z,98845.72
2022-11-22T14:06:15.124Z,98852.56
2022-11-22T14:08:44.082Z,98843.72
2022-11-22T14:11:27.599Z,98838.28
2022-11-22T14:14:07.992Z,98837.25
2022-11-22T14:17:02.590Z,98835.66
2022-11-22T14:19:43.608Z,98828.00
2022-11-22T14:22:21.691Z,98824.59
2022-11-22T14:25:05.595Z,98827.41
2022-11-22T14:27:44.778Z,98821.97
2022-11-22T14:30:20.243Z,98824.59
2022-11-22T14:32:52.619Z,98820.94
2022-11-22T14:35:30.343Z,98817.09
2022-11-22T14:38:21.565Z,98814.31
2022-11-22T14:40:49.903Z,98814.91
2022-11-22T14:43:27.918Z,98816.72
2022-11-22T14:46:01.784Z,98801.59
2022-11-22T14:48:36.292Z,98800.19
2022-11-22T14:51:09.553Z,98803.44
2022-11-22T14:53:44.815Z,98793.78
2022-11-22T14:56:17.566Z,98796.56
2022-11-22T14:58:58.045Z,98781.25
2022-11-22T15:02:07.073Z,98797.16
2022-11-22T15:09:20.360Z,98792.13
2022-11-22T15:09:21.000Z,98787.09
2022-11-22T15:11:36.709Z,98779.00
2022-11-22T15:14:37.311Z,98784.25
2022-11-22T15:57:27.132Z,98775.88
2022-11-22T15:59:56.078Z,98779.47
2022-11-22T16:02:26.352Z,98778.88
2022-11-22T16:06:05.726Z,98781.06
2022-11-22T16:07:50.288Z,98783.69
2022-11-22T16:10:22.081Z,98785.06
2022-11-22T16:12:50.676Z,98785.66
2022-11-22T16:15:30.626Z,98792.31
2022-11-22T16:18:09.005Z,98790.28
2022-11-22T16:20:37.991Z,98791.88
2022-11-22T16:23:20.042Z,98791.31
2022-11-22T16:25:50.357Z,98798.94
2022-11-22T16:28:27.400Z,98798.28
2022-11-22T16:30:56.714Z,98803.13
2022-11-22T16:33:25.353Z,98793.47
2022-11-22T16:35:55.322Z,98811.16
2022-11-22T16:38:25.689Z,98802.50
2022-11-22T16:40:56.954Z,98795.84
2022-11-22T16:43:26.931Z,98799.03
2022-11-22T16:45:55.102Z,98801.22
2022-11-22T16:48:31.859Z,98794.56
2022-11-22T16:51:03.675Z,98792.09
2022-11-22T16:53:41.248Z,98791.47
2022-11-22T16:56:10.626Z,98796.09
2022-11-22T16:58:38.689Z,98798.47
2022-11-22T17:01:07.468Z,98799.44
2022-11-22T17:03:39.651Z,98807.50
2022-11-22T17:06:08.313Z,98798.25
2022-11-22T17:08:37.928Z,98802.63
2022-11-22T17:11:06.289Z,98801.22
2022-11-22T17:13:34.327Z,98810.88
2022-11-22T17:16:02.427Z,98804.41
2022-11-22T17:18:30.559Z,98802.00
2022-11-22T17:20:58.721Z,98794.31
2022-11-22T17:23:31.953Z,98796.13
2022-11-22T17:26:01.484Z,98797.13
2022-11-22T17:28:29.583Z,98796.31
2022-11-22T17:30:59.631Z,98793.88
2022-11-22T17:33:27.946Z,98801.13
2022-11-22T17:35:56.567Z,98796.25
2022-11-22T17:38:24.791Z,98794.84
2022-11-22T17:41:01.673Z,98796.25
2022-11-22T17:43:29.711Z,98794.03
2022-11-22T17:45:57.896Z,98787.19
2022-11-22T17:48:26.053Z,98781.50
2022-11-22T17:50:54.141Z,98779.69
2022-11-22T17:53:22.457Z,98778.09
2022-11-22T17:58:40.515Z,98771.03
2022-11-22T18:01:10.774Z,98765.81
2022-11-22T18:03:40.096Z,98771.63
2022-11-22T18:06:09.199Z,98761.16
2022-11-22T18:08:39.570Z,98764.94
2022-11-22T18:11:11.683Z,98762.16
2022-11-22T18:13:42.188Z,98761.31
2022-11-22T18:16:14.241Z,98761.50
2022-11-22T18:18:58.673Z,98753.06
2022-11-22T18:21:29.237Z,98754.66
2022-11-22T18:23:58.646Z,98750.44
2022-11-22T18:26:42.608Z,98746.03
2022-11-22T18:32:03.362Z,98760.25
2022-11-22T18:34:32.183Z,98762.28
2022-11-22T18:37:03.135Z,98747.59
2022-11-22T18:39:33.592Z,98736.69
2022-11-22T18:42:02.267Z,98737.50
2022-11-22T18:44:32.235Z,98733.06
2022-11-22T18:47:00.560Z,98728.03
2022-11-22T18:49:28.777Z,98731.66
2022-11-22T18:51:57.126Z,98741.09
2022-11-22T18:54:25.719Z,98737.69
2022-11-22T18:56:54.078Z,98726.41
2022-11-22T18:59:22.404Z,98725.41
2022-11-22T19:01:51.884Z,98724.78
2022-11-22T19:04:20.016Z,98721.38
2022-11-22T19:06:48.093Z,98720.91
2022-11-22T19:09:16.353Z,98715.69
2022-11-22T19:11:44.538Z,98710.84
2022-11-22T19:14:12.729Z,98706.81
2022-11-22T19:16:40.801Z,98701.78
2022-11-22T19:19:12.177Z,98707.00
2022-11-22T19:21:40.419Z,98704.75
2022-11-22T19:24:08.736Z,98701.31
2022-11-22T19:26:37.038Z,98706.75
2022-11-22T19:29:05.204Z,98712.34
2022-11-22T19:31:33.890Z,98720.38
2022-11-22T19:34:02.053Z,98724.63
2022-11-22T19:36:34.298Z,98725.81
2022-11-22T19:39:03.869Z,98721.00
2022-11-22T19:41:32.186Z,98716.16
2022-11-22T19:44:00.886Z,98700.03
2022-11-22T19:46:29.601Z,98695.41
2022-11-22T19:48:59.531Z,98692.00
2022-11-22T19:51:29.893Z,98682.34
2022-11-22T19:54:02.253Z,98678.13
2022-11-22T19:56:32.906Z,98672.09
2022-11-22T19:59:02.843Z,98678.47
2022-11-22T20:01:32.824Z,98678.66
2022-11-22T20:04:03.486Z,98677.03
2022-11-22T20:06:32.865Z,98673.78
2022-11-22T20:09:03.748Z,98675.78
2022-11-22T20:11:31.962Z,98686.63
2022-11-22T20:14:00.033Z,98689.22
2022-11-22T20:16:29.852Z,98691.22
2022-11-22T20:18:59.473Z,98696.66
2022-11-22T20:21:29.090Z,98684.75
2022-11-22T20:23:57.315Z,98691.00
2022-11-22T20:26:27.225Z,98685.13
2022-11-22T20:28:56.948Z,98675.22
2022-11-22T20:31:25.761Z,98671.41
2022-11-22T20:33:55.464Z,98671.56
2022-11-22T20:36:25.621Z,98659.31
2022-11-22T20:38:54.740Z,98667.34
2022-11-22T20:41:24.488Z,98654.47
2022-11-22T20:43:54.279Z,98639.16
2022-11-22T20:46:23.811Z,98630.50
2022-11-22T20:48:53.257Z,98630.50
2022-11-22T20:51:22.912Z,98620.88
2022-11-22T20:53:51.553Z,98619.47
2022-11-22T20:56:20.357Z,98607.56
2022-11-22T20:58:48.679Z,98601.72
2022-11-22T21:01:20.461Z,98601.28
2022-11-22T21:03:49.131Z,98585.78
2022-11-22T21:06:18.868Z,98584.81
2022-11-22T21:08:47.538Z,98586.06
2022-11-22T21:11:17.697Z,98580.19
2022-11-22T21:13:47.251Z,98584.81
2022-11-22T21:16:23.903Z,98578.16
2022-11-22T21:18:53.439Z,98586.38
2022-11-22T21:21:24.038Z,98589.97
2022-11-22T21:23:53.369Z,98587.53
2022-11-22T21:26:22.397Z,98579.91
2022-11-22T21:28:50.946Z,98581.72
2022-11-22T21:31:21.779Z,98579.47
2022-11-22T21:33:50.514Z,98579.47
2022-11-22T21:36:19.632Z,98576.41
2022-11-22T21:38:48.023Z,98573.19
2022-11-22T21:44:06.325Z,98553.91
2022-11-22T21:46:35.755Z,98561.94
2022-11-22T21:49:03.831Z,98564.09
2022-11-22T21:51:32.252Z,98547.63
2022-11-22T21:54:00.804Z,98552.22
2022-11-22T21:56:29.522Z,98552.41
2022-11-22T21:58:57.701Z,98538.91
2022-11-22T22:01:26.801Z,98550.56
2022-11-22T22:03:56.385Z,98554.97
2022-11-22T22:06:25.191Z,98566.59
2022-11-22T22:08:53.637Z,98573.34
2022-11-22T22:11:22.341Z,98572.91
2022-11-22T22:13:50.631Z,98571.75
2022-11-22T22:16:23.063Z,98572.56
2022-11-22T22:18:51.549Z,98575.31
2022-11-22T22:21:21.782Z,98573.34
2022-11-22T22:23:49.991Z,98564.06
2022-11-22T22:26:19.140Z,98560.06
2022-11-22T22:28:47.758Z,98549.78
2022-11-22T22:31:21.597Z,98554.84
2022-11-22T22:33:51.047Z,98557.44
2022-11-22T22:36:21.567Z,98549.63
2022-11-22T22:38:50.108Z,98556.44
2022-11-22T22:41:18.478Z,98538.97
2022-11-22T22:43:48.291Z,98511.06
2022-11-22T22:46:18.338Z,98502.63
2022-11-22T22:48:47.267Z,98489.75
2022-11-22T22:51:17.699Z,98489.38
2022-11-22T22:53:48.507Z,98488.22
2022-11-22T22:56:17.990Z,98484.41
2022-11-22T22:58:46.344Z,98477.78
2022-11-22T23:01:17.423Z,98469.78
2022-11-22T23:03:49.275Z,98449.78
2022-11-22T23:06:18.349Z,98430.94
2022-11-22T23:08:50.199Z,98430.38
2022-11-22T23:11:20.437Z,98419.53
2022-11-22T23:13:48.615Z,98414.94
2022-11-22T23:16:16.922Z,98410.31
2022-11-22T23:18:46.472Z,98418.97
2022-11-22T23:21:16.182Z,98401.69
2022-11-22T23:23:44.281Z,98386.22
2022-11-22T23:26:14.360Z,98377.59
2022-11-22T23:28:42.473Z,98371.34
2022-11-22T23:31:13.980Z,98364.69
2022-11-22T23:33:42.638Z,98344.06
2022-11-22T23:36:13.510Z,98350.31
2022-11-22T23:38:42.464Z,98351.34
2022-11-22T23:41:15.261Z,98363.63
2022-11-22T23:43:44.304Z,98370.28
2022-11-22T23:46:16.404Z,98361.88
2022-11-22T23:48:44.928Z,98343.97
2022-11-22T23:51:13.526Z,98333.16
2022-11-22T23:53:41.939Z,98332.56
2022-11-22T23:56:12.089Z,98318.72
2022-11-22T23:58:41.966Z,98303.50
